KONT

Ontario International Airport

Ontario, California, USA
METAR KONT 160453Z 06012G19KT 10SM CLR 22/M17 A3002 RMK AO2 SLP154 T02171167
Observed Flight Rules
Oct-16 @ 04:53 UTC (58 minutes ago) Visual Flight Rules
Wind Visibility Clouds
60° at 12 knots
 Gusting to 19 knots
10 miles
  • Clear skies
Temperatures Readings
Current 22°C / 72°F
Dewpoint -17°C / 1°F
Humidity 6%
Altimeter 30.02" Hg
Pressure 1015.4 hPa
Elevation 274
METAR KONT 160453Z 06012G19KT 10SM CLR 22/M17 A3002 RMK AO2 SLP154 T02171167
Observed Flight Rules
Oct-16 @ 04:53 UTC
(58 minutes ago)
VFR
Wind Visibility
60° at 12 knots
 Gusting to 19 knots
10 miles
Clouds
  • Clear skies
Temperature Dewpoint
22°C / 72°F -17°C / 1°F
Humidity Altimeter Pressure
6% 30.02" Hg 1015.4 hPa